Terminal Aerodrome Forecast
Issued by NWS

Current Version | Previous Version | Text Only | Print | Product List | Glossary On
Versions: 1 2 3 4 5 6 7 8 9 10 11 12 13 14 15 16 17 18 19 20 21 22 23 24 25 26 27 28 29 30 31 32 33 34 35 36
810
FTAK31 PAFA 191828 AAB
TAFATA
TAF AMD
PATA 191828Z 1918/2018 27006KT 6SM -SN BR BKN050 OVC070
      TEMPO 1918/1920 1 1/2SM -SN BKN025
     FM200900 28004KT P6SM SCT040=

USA.gov is the U.S. government's official web portal to all federal, state and local government web resources and services.